createdAt,value
2023-02-05T00:01:50.274Z,6.57
2023-02-05T00:04:16.924Z,4.20
2023-02-05T00:06:44.408Z,4.93
2023-02-05T00:09:11.540Z,6.28
2023-02-05T00:11:38.266Z,7.70
2023-02-05T00:14:05.039Z,9.90
2023-02-05T00:16:31.525Z,4.32
2023-02-05T00:18:58.169Z,5.25
2023-02-05T00:21:24.929Z,4.50
2023-02-05T00:23:51.754Z,4.70
2023-02-05T00:26:19.047Z,4.63
2023-02-05T00:28:46.133Z,4.53
2023-02-05T00:31:17.123Z,6.97
2023-02-05T00:33:44.244Z,5.82
2023-02-05T00:36:12.870Z,4.43
2023-02-05T00:38:40.211Z,4.28
2023-02-05T00:41:07.370Z,3.15
2023-02-05T00:43:33.837Z,5.50
2023-02-05T00:46:00.851Z,5.10
2023-02-05T00:48:27.805Z,2.97
2023-02-05T00:50:55.123Z,5.95
2023-02-05T00:53:22.957Z,5.43
2023-02-05T00:55:50.549Z,4.00
2023-02-05T00:58:17.696Z,5.15
2023-02-05T01:00:44.485Z,4.70
2023-02-05T01:03:11.824Z,3.78
2023-02-05T01:05:39.402Z,3.67
2023-02-05T01:08:08.080Z,3.80
2023-02-05T01:10:35.457Z,3.13
2023-02-05T01:13:02.084Z,4.13
2023-02-05T01:15:29.027Z,3.85
2023-02-05T01:17:55.723Z,4.00
2023-02-05T01:20:22.594Z,6.03
2023-02-05T01:22:49.499Z,3.35
2023-02-05T01:25:16.467Z,4.78
2023-02-05T01:27:44.802Z,3.15
2023-02-05T01:30:11.878Z,2.15
2023-02-05T01:32:40.531Z,6.10
2023-02-05T01:35:08.811Z,4.38
2023-02-05T01:37:35.402Z,4.30
2023-02-05T01:40:02.206Z,2.95
2023-02-05T01:42:31.912Z,5.25
2023-02-05T01:45:23.691Z,2.42
2023-02-05T01:48:10.272Z,8.40
2023-02-05T01:51:01.601Z,5.97
2023-02-05T01:53:49.448Z,7.50
2023-02-05T01:56:41.431Z,3.97
2023-02-05T01:59:30.328Z,5.07
2023-02-05T02:02:17.442Z,5.40
2023-02-05T02:04:52.679Z,4.60
2023-02-05T02:07:22.496Z,5.90
2023-02-05T02:09:50.057Z,5.28
2023-02-05T02:12:23.405Z,3.63
2023-02-05T02:14:53.417Z,6.57
2023-02-05T02:17:21.082Z,5.63
2023-02-05T02:19:59.892Z,4.38
2023-02-05T02:22:57.462Z,6.05
2023-02-05T02:25:37.984Z,6.13
2023-02-05T02:30:40.975Z,7.03
2023-02-05T02:33:30.408Z,5.05
2023-02-05T02:36:12.603Z,6.45
2023-02-05T02:38:44.362Z,7.38
2023-02-05T02:41:20.038Z,2.83
2023-02-05T02:43:55.980Z,3.83
2023-02-05T02:46:28.219Z,3.75
2023-02-05T02:48:58.394Z,4.70
2023-02-05T02:51:28.448Z,7.78
2023-02-05T02:54:00.608Z,4.07
2023-02-05T02:56:29.901Z,3.83
2023-02-05T02:59:06.609Z,4.72
2023-02-05T03:01:37.727Z,4.82
2023-02-05T03:04:11.911Z,6.25
2023-02-05T03:06:40.742Z,8.02
2023-02-05T03:09:20.622Z,4.90
2023-02-05T03:11:47.782Z,6.93
2023-02-05T03:14:14.805Z,11.93
2023-02-05T03:16:41.320Z,6.25
2023-02-05T03:19:08.699Z,7.45
2023-02-05T03:21:44.485Z,8.07
2023-02-05T03:24:11.712Z,6.45
2023-02-05T03:26:42.085Z,13.68
2023-02-05T03:29:26.784Z,5.65
2023-02-05T03:32:28.301Z,8.25
2023-02-05T03:35:26.266Z,6.63
2023-02-05T03:38:11.310Z,12.52
2023-02-05T03:40:55.390Z,7.03
2023-02-05T03:43:45.797Z,7.70
2023-02-05T03:46:34.928Z,6.93
2023-02-05T03:49:18.321Z,4.75
2023-02-05T03:51:56.527Z,8.50
2023-02-05T03:54:33.424Z,8.80
2023-02-05T03:57:25.011Z,8.27
2023-02-05T03:59:53.622Z,4.10
2023-02-05T04:02:22.209Z,6.07
2023-02-05T04:04:49.263Z,4.57
2023-02-05T04:07:16.983Z,6.35
2023-02-05T04:09:45.135Z,5.10
2023-02-05T04:12:11.800Z,5.88
2023-02-05T04:14:39.750Z,8.52
2023-02-05T04:17:07.782Z,5.13
2023-02-05T04:19:34.787Z,8.25
2023-02-05T04:22:01.998Z,8.35
2023-02-05T04:24:31.807Z,9.63
2023-02-05T04:26:58.846Z,5.43
2023-02-05T04:29:25.890Z,7.95
2023-02-05T04:31:53.029Z,5.68
2023-02-05T04:34:20.128Z,5.90
2023-02-05T04:36:46.861Z,4.13
2023-02-05T04:39:14.428Z,5.00
2023-02-05T04:41:41.424Z,8.93
2023-02-05T04:44:08.426Z,5.90
2023-02-05T04:46:35.338Z,4.47
2023-02-05T04:49:02.134Z,9.93
2023-02-05T04:51:28.621Z,4.68
2023-02-05T04:53:55.386Z,3.85
2023-02-05T04:56:21.878Z,7.85
2023-02-05T04:58:48.840Z,4.00
2023-02-05T05:01:18.978Z,9.18
2023-02-05T05:06:14.285Z,6.32
2023-02-05T05:08:41.092Z,11.85
2023-02-05T05:11:10.890Z,6.15
2023-02-05T05:13:37.998Z,7.72
2023-02-05T05:16:05.779Z,10.73
2023-02-05T05:18:33.188Z,8.48
2023-02-05T05:20:59.619Z,9.57
2023-02-05T05:23:26.802Z,13.73
2023-02-05T05:25:53.635Z,12.13
2023-02-05T05:28:20.052Z,9.25
2023-02-05T05:30:48.008Z,9.70
2023-02-05T05:33:14.925Z,8.25
2023-02-05T05:35:41.991Z,16.63
2023-02-05T05:38:08.902Z,7.05
2023-02-05T05:40:54.074Z,8.80
2023-02-05T05:43:40.184Z,7.68
2023-02-05T05:46:07.936Z,8.45
2023-02-05T05:48:34.613Z,6.13
2023-02-05T05:51:01.361Z,12.52
2023-02-05T05:53:28.383Z,6.75
2023-02-05T05:55:55.139Z,9.00
2023-02-05T05:58:21.847Z,10.77
2023-02-05T06:00:48.362Z,10.82
2023-02-05T06:03:15.183Z,7.00
2023-02-05T06:05:42.415Z,5.38
2023-02-05T06:08:08.836Z,8.45
2023-02-05T06:10:36.392Z,8.02
2023-02-05T06:13:03.097Z,10.55
2023-02-05T06:15:29.585Z,7.43
2023-02-05T06:17:56.554Z,11.18
2023-02-05T06:20:23.201Z,8.93
2023-02-05T06:22:49.877Z,7.45
2023-02-05T06:25:17.391Z,8.70
2023-02-05T06:27:44.210Z,7.43
2023-02-05T06:30:11.565Z,8.38
2023-02-05T06:32:38.324Z,5.90
2023-02-05T06:35:05.455Z,13.90
2023-02-05T06:37:46.915Z,9.55
2023-02-05T06:40:18.412Z,8.55
2023-02-05T06:42:45.438Z,9.50
2023-02-05T06:45:12.252Z,12.00
2023-02-05T06:47:39.050Z,12.00
2023-02-05T06:50:06.740Z,9.13
2023-02-05T06:52:33.988Z,9.25
2023-02-05T06:55:00.544Z,5.97
2023-02-05T06:57:27.066Z,9.18
2023-02-05T06:59:53.577Z,8.80
2023-02-05T07:02:20.267Z,10.02
2023-02-05T07:04:46.815Z,7.35
2023-02-05T07:07:16.789Z,6.88
2023-02-05T07:09:44.203Z,9.98
2023-02-05T07:12:10.704Z,6.18
2023-02-05T07:14:41.718Z,9.63
2023-02-05T07:17:09.187Z,8.82
2023-02-05T07:19:36.953Z,10.68
2023-02-05T07:22:05.196Z,8.02
2023-02-05T07:24:31.845Z,11.23
2023-02-05T07:26:58.447Z,7.10
2023-02-05T07:29:25.131Z,9.20
2023-02-05T07:31:52.323Z,11.23
2023-02-05T07:34:19.708Z,8.13
2023-02-05T07:36:49.717Z,12.15
2023-02-05T07:39:16.208Z,8.52
2023-02-05T07:41:43.189Z,14.40
2023-02-05T07:44:17.575Z,12.35
2023-02-05T07:46:44.268Z,13.85
2023-02-05T07:49:11.384Z,16.10
2023-02-05T07:51:38.703Z,16.85
2023-02-05T07:54:09.855Z,21.25
2023-02-05T07:56:36.674Z,15.32
2023-02-05T07:59:03.857Z,13.10
2023-02-05T08:01:30.347Z,13.57
2023-02-05T08:03:57.453Z,17.85
2023-02-05T08:06:24.158Z,17.17
2023-02-05T08:08:51.069Z,17.60
2023-02-05T08:11:18.779Z,19.77
2023-02-05T08:13:46.461Z,15.82
2023-02-05T08:16:15.978Z,20.63
2023-02-05T08:18:43.252Z,22.37
2023-02-05T08:21:09.814Z,21.52
2023-02-05T08:23:37.055Z,22.15
2023-02-05T08:26:03.894Z,29.13
2023-02-05T08:28:30.662Z,26.40
2023-02-05T08:30:58.587Z,25.95
2023-02-05T08:33:26.050Z,28.08
2023-02-05T08:35:53.240Z,29.15
2023-02-05T08:38:20.121Z,24.42
2023-02-05T08:40:46.958Z,30.60
2023-02-05T08:43:13.602Z,25.70
2023-02-05T08:45:40.484Z,26.25
2023-02-05T08:48:07.558Z,31.98
2023-02-05T08:50:33.992Z,29.25
2023-02-05T08:53:01.079Z,30.10
2023-02-05T08:55:27.586Z,26.67
2023-02-05T08:57:54.162Z,26.48
2023-02-05T09:00:21.701Z,22.25
2023-02-05T09:02:48.492Z,32.22
2023-02-05T09:05:14.979Z,32.60
2023-02-05T09:07:41.880Z,31.65
2023-02-05T09:10:11.202Z,22.58
2023-02-05T09:12:37.875Z,31.70
2023-02-05T09:15:06.236Z,31.23
2023-02-05T09:17:32.785Z,39.78
2023-02-05T09:19:59.784Z,32.58
2023-02-05T09:22:26.390Z,27.58
2023-02-05T09:24:53.005Z,29.73
2023-02-05T09:27:19.478Z,33.92
2023-02-05T09:29:46.558Z,28.90
2023-02-05T09:32:13.342Z,26.70
2023-02-05T09:34:40.115Z,29.58
2023-02-05T09:37:06.772Z,32.15
2023-02-05T09:42:39.563Z,32.10
2023-02-05T09:45:15.037Z,34.92
2023-02-05T09:47:54.153Z,33.53
2023-02-05T09:50:31.716Z,41.60
2023-02-05T09:53:11.556Z,37.55
2023-02-05T09:55:42.328Z,39.13
2023-02-05T09:58:17.752Z,34.50
2023-02-05T10:00:59.381Z,38.88
2023-02-05T10:03:35.414Z,30.45
2023-02-05T10:06:38.856Z,31.65
2023-02-05T10:09:31.283Z,47.53
2023-02-05T10:12:25.505Z,42.55
2023-02-05T10:15:20.039Z,27.63
2023-02-05T10:18:10.596Z,40.67
2023-02-05T10:23:41.161Z,41.88
2023-02-05T10:26:21.030Z,25.23
2023-02-05T10:28:55.296Z,30.75
2023-02-05T10:31:40.044Z,38.13
2023-02-05T10:34:22.058Z,32.05
2023-02-05T10:36:52.517Z,34.22
2023-02-05T10:41:59.475Z,34.97
2023-02-05T10:44:34.461Z,30.33
2023-02-05T10:47:10.015Z,35.05
2023-02-05T10:49:48.672Z,43.00
2023-02-05T10:52:16.267Z,36.88
2023-02-05T10:54:44.139Z,36.00
2023-02-05T10:57:17.417Z,34.58
2023-02-05T11:00:08.498Z,32.25
2023-02-05T11:02:42.292Z,42.03
2023-02-05T11:05:21.598Z,36.08
2023-02-05T11:07:51.534Z,41.75
2023-02-05T11:10:28.267Z,33.15
2023-02-05T11:13:04.980Z,39.65
2023-02-05T11:15:33.519Z,28.42
2023-02-05T11:18:03.237Z,27.10
2023-02-05T11:20:36.563Z,28.25
2023-02-05T11:23:21.285Z,26.92
2023-02-05T11:26:01.154Z,24.67
2023-02-05T11:28:30.515Z,25.27
2023-02-05T11:30:58.364Z,26.73
2023-02-05T11:33:28.198Z,22.33
2023-02-05T11:35:58.944Z,25.48
2023-02-05T11:38:32.231Z,32.50
2023-02-05T11:41:02.629Z,27.13
2023-02-05T11:46:03.818Z,27.00
2023-02-05T11:48:44.370Z,29.50
2023-02-05T11:54:21.448Z,26.17
2023-02-05T11:57:10.224Z,30.38
2023-02-05T11:59:39.577Z,32.20
2023-02-05T12:02:31.124Z,26.38
2023-02-05T12:05:13.299Z,29.40
2023-02-05T12:07:47.934Z,28.95
2023-02-05T12:10:26.204Z,26.95
2023-02-05T12:13:07.076Z,25.88
2023-02-05T12:16:05.105Z,29.98
2023-02-05T12:18:56.618Z,26.20
2023-02-05T12:21:37.467Z,22.63
2023-02-05T12:24:33.314Z,26.92
2023-02-05T12:27:41.871Z,24.67
2023-02-05T12:30:17.459Z,23.45
2023-02-05T12:32:53.749Z,27.90
2023-02-05T12:35:32.522Z,24.75
2023-02-05T12:38:21.187Z,25.42
2023-02-05T12:41:30.806Z,27.13
2023-02-05T12:44:38.315Z,27.30
2023-02-05T12:47:08.136Z,28.40
2023-02-05T12:49:54.559Z,29.23
2023-02-05T12:52:39.775Z,25.27
2023-02-05T12:55:27.764Z,22.83
2023-02-05T12:58:03.056Z,25.48
2023-02-05T13:00:40.212Z,25.67
2023-02-05T13:03:27.610Z,26.98
2023-02-05T13:06:16.900Z,30.77
2023-02-05T13:09:01.091Z,26.67
2023-02-05T13:11:38.395Z,25.05
2023-02-05T13:14:13.916Z,27.10
2023-02-05T13:16:46.091Z,23.05
2023-02-05T13:19:30.988Z,25.90
2023-02-05T13:22:19.925Z,24.27
2023-02-05T13:25:43.898Z,22.45
2023-02-05T13:28:40.988Z,24.35
2023-02-05T13:31:17.342Z,25.48
2023-02-05T13:33:44.514Z,24.52
2023-02-05T13:36:29.483Z,20.13
2023-02-05T13:39:46.855Z,21.88
2023-02-05T13:42:44.093Z,17.67
2023-02-05T13:45:47.878Z,20.30
2023-02-05T13:48:40.547Z,19.00
2023-02-05T13:51:21.842Z,16.77
2023-02-05T13:54:26.023Z,11.20
2023-02-05T13:57:13.087Z,10.32
2023-02-05T13:59:51.442Z,8.85
2023-02-05T14:02:37.113Z,13.82
2023-02-05T14:05:05.315Z,8.05
2023-02-05T14:07:45.959Z,8.77
2023-02-05T14:10:26.652Z,7.82
2023-02-05T14:12:53.944Z,7.90
2023-02-05T14:15:20.748Z,7.90
2023-02-05T14:17:47.449Z,8.55
2023-02-05T14:20:26.533Z,7.75
2023-02-05T14:23:01.151Z,5.50
2023-02-05T14:25:38.073Z,5.63
2023-02-05T14:28:05.048Z,4.65
2023-02-05T14:30:58.430Z,3.72
2023-02-05T14:33:39.117Z,5.63
2023-02-05T14:38:45.124Z,7.20
2023-02-05T14:41:20.778Z,5.70
2023-02-05T14:44:01.154Z,5.43
2023-02-05T14:46:49.529Z,6.47
2023-02-05T14:49:25.789Z,7.90
2023-02-05T14:51:59.989Z,6.85
2023-02-05T14:54:30.950Z,7.45
2023-02-05T14:57:22.158Z,7.53
2023-02-05T15:00:21.772Z,4.75
2023-02-05T15:03:15.357Z,5.88
2023-02-05T15:05:44.859Z,7.15
2023-02-05T15:08:19.072Z,6.03
2023-02-05T15:10:56.770Z,10.60
2023-02-05T15:13:25.358Z,8.63
2023-02-05T15:16:16.210Z,6.30
2023-02-05T15:18:54.120Z,12.50
2023-02-05T15:21:23.700Z,6.80
2023-02-05T15:23:57.901Z,9.55
2023-02-05T15:26:30.838Z,7.20
2023-02-05T15:29:35.071Z,7.32
2023-02-05T15:32:05.994Z,8.73
2023-02-05T15:34:43.220Z,8.20
2023-02-05T15:37:10.332Z,7.40
2023-02-05T15:39:55.315Z,7.35
2023-02-05T15:42:36.866Z,7.65
2023-02-05T15:45:44.653Z,7.40
2023-02-05T15:48:11.567Z,8.07
2023-02-05T15:50:52.448Z,5.70
2023-02-05T15:53:36.526Z,6.45
2023-02-05T15:56:25.575Z,6.85
2023-02-05T15:59:10.716Z,6.70
2023-02-05T16:01:44.869Z,5.00
2023-02-05T16:04:30.545Z,5.15
2023-02-05T16:06:57.975Z,5.40
2023-02-05T16:09:27.100Z,6.03
2023-02-05T16:11:55.774Z,7.78
2023-02-05T16:14:28.481Z,6.82
2023-02-05T16:16:55.477Z,7.82
2023-02-05T16:19:29.553Z,8.05
2023-02-05T16:22:01.929Z,9.40
2023-02-05T16:24:33.840Z,9.55
2023-02-05T16:27:06.651Z,9.00
2023-02-05T16:29:47.663Z,8.15
2023-02-05T16:32:29.483Z,10.00
2023-02-05T16:34:57.069Z,10.40
2023-02-05T16:37:27.731Z,8.65
2023-02-05T16:39:57.111Z,8.23
2023-02-05T16:42:23.723Z,9.13
2023-02-05T16:45:06.041Z,11.75
2023-02-05T16:47:32.792Z,10.77
2023-02-05T16:49:59.443Z,12.68
2023-02-05T16:52:35.567Z,12.32
2023-02-05T16:55:27.979Z,13.52
2023-02-05T16:58:03.552Z,10.35
2023-02-05T17:00:30.377Z,9.80
2023-02-05T17:03:07.442Z,11.75
2023-02-05T17:05:36.920Z,11.27
2023-02-05T17:08:07.677Z,10.23
2023-02-05T17:13:44.813Z,12.80
2023-02-05T17:16:31.775Z,15.55
2023-02-05T17:19:04.320Z,24.77
2023-02-05T17:21:36.211Z,19.15
2023-02-05T17:24:06.847Z,18.13
2023-02-05T17:26:40.621Z,12.95
2023-02-05T17:29:15.608Z,14.27
2023-02-05T17:31:42.390Z,12.07
2023-02-05T17:34:10.612Z,12.90
2023-02-05T17:36:37.130Z,11.25
2023-02-05T17:39:04.450Z,11.95
2023-02-05T17:41:55.304Z,9.65
2023-02-05T17:44:22.283Z,10.90
2023-02-05T17:46:48.746Z,11.98
2023-02-05T17:49:15.616Z,10.40
2023-02-05T17:51:42.856Z,9.07
2023-02-05T17:54:17.698Z,11.07
2023-02-05T17:56:45.634Z,9.43
2023-02-05T17:59:15.170Z,11.23
2023-02-05T18:01:41.906Z,9.83
2023-02-05T18:04:08.483Z,8.88
2023-02-05T18:06:36.573Z,9.07
2023-02-05T18:09:03.598Z,9.05
2023-02-05T18:11:30.172Z,7.75
2023-02-05T18:13:57.401Z,11.30
2023-02-05T18:16:24.543Z,14.25
2023-02-05T18:18:51.024Z,12.30
2023-02-05T18:21:17.850Z,12.05
2023-02-05T18:23:44.584Z,12.50
2023-02-05T18:26:11.255Z,13.10
2023-02-05T18:28:37.737Z,13.35
2023-02-05T18:31:07.528Z,15.75
2023-02-05T18:33:35.170Z,17.30
2023-02-05T18:36:13.159Z,19.90
2023-02-05T18:38:40.901Z,23.77
2023-02-05T18:41:16.206Z,16.85
2023-02-05T18:43:43.892Z,19.02
2023-02-05T18:46:14.493Z,24.17
2023-02-05T18:48:41.766Z,16.52
2023-02-05T18:51:10.920Z,27.73
2023-02-05T18:53:39.275Z,28.05
2023-02-05T18:56:09.669Z,21.55
2023-02-05T19:01:14.038Z,19.38
2023-02-05T19:03:41.853Z,24.88
2023-02-05T19:06:10.088Z,15.13
2023-02-05T19:08:37.454Z,19.67
2023-02-05T19:11:16.260Z,20.08
2023-02-05T19:13:43.154Z,17.05
2023-02-05T19:16:12.727Z,17.98
2023-02-05T19:18:44.765Z,19.70
2023-02-05T19:21:16.787Z,13.50
2023-02-05T19:23:45.021Z,11.73
2023-02-05T19:26:14.817Z,14.18
2023-02-05T19:28:42.733Z,9.35
2023-02-05T19:31:12.044Z,10.50
2023-02-05T19:33:39.275Z,14.77
2023-02-05T19:36:08.272Z,12.55
2023-02-05T19:38:37.010Z,10.27
2023-02-05T19:41:12.734Z,18.13
2023-02-05T19:43:40.733Z,14.90
2023-02-05T19:46:08.324Z,13.77
2023-02-05T19:48:36.151Z,13.77
2023-02-05T19:51:04.700Z,10.80
2023-02-05T19:53:31.970Z,13.93
2023-02-05T19:56:06.759Z,12.80
2023-02-05T19:58:38.079Z,14.40
2023-02-05T20:01:32.028Z,15.80
2023-02-05T20:04:12.974Z,12.63
2023-02-05T20:06:40.841Z,14.18
2023-02-05T20:09:11.908Z,11.90
2023-02-05T20:11:40.112Z,10.55
2023-02-05T20:14:07.504Z,10.38
2023-02-05T20:16:34.885Z,12.77
2023-02-05T20:19:01.747Z,12.50
2023-02-05T20:21:30.061Z,7.75
2023-02-05T20:23:57.265Z,9.55
2023-02-05T20:26:23.810Z,10.43
2023-02-05T20:29:12.146Z,10.32
2023-02-05T20:31:42.703Z,9.90
2023-02-05T20:34:22.715Z,12.25
2023-02-05T20:36:59.639Z,10.70
2023-02-05T20:39:28.760Z,9.80
2023-02-05T20:41:57.847Z,9.48
2023-02-05T20:44:36.278Z,9.90
2023-02-05T20:47:04.610Z,9.30
2023-02-05T20:49:31.198Z,9.88
2023-02-05T20:51:58.086Z,11.20
2023-02-05T20:54:25.024Z,11.18
2023-02-05T20:56:57.170Z,10.15
2023-02-05T20:59:24.665Z,10.65
2023-02-05T21:01:51.437Z,15.23
2023-02-05T21:04:20.434Z,15.30
2023-02-05T21:06:48.168Z,12.07
2023-02-05T21:09:15.926Z,12.20
2023-02-05T21:11:42.783Z,11.85
2023-02-05T21:14:09.934Z,19.83
2023-02-05T21:16:36.905Z,17.02
2023-02-05T21:19:06.032Z,15.95
2023-02-05T21:21:34.947Z,14.73
2023-02-05T21:24:04.278Z,12.25
2023-02-05T21:26:37.921Z,11.95
2023-02-05T21:29:10.389Z,11.00
2023-02-05T21:31:40.143Z,14.50
2023-02-05T21:34:10.537Z,14.88
2023-02-05T21:36:37.620Z,12.63
2023-02-05T21:39:04.646Z,16.00
2023-02-05T21:41:31.615Z,18.20
2023-02-05T21:44:00.392Z,17.35
2023-02-05T21:46:31.809Z,17.48
2023-02-05T21:49:00.690Z,16.42
2023-02-05T21:51:30.436Z,17.33
2023-02-05T21:53:59.286Z,16.40
2023-02-05T21:56:32.231Z,20.00
2023-02-05T21:58:59.088Z,19.23
2023-02-05T22:01:28.920Z,16.55
2023-02-05T22:04:01.052Z,10.85
2023-02-05T22:06:31.064Z,14.98
2023-02-05T22:08:58.845Z,11.93
2023-02-05T22:11:26.564Z,14.32
2023-02-05T22:13:54.873Z,10.45
2023-02-05T22:16:28.860Z,12.43
2023-02-05T22:18:56.626Z,12.65
2023-02-05T22:21:27.061Z,11.43
2023-02-05T22:26:24.277Z,8.48
2023-02-05T22:28:51.576Z,8.80
2023-02-05T22:31:20.453Z,8.85
2023-02-05T22:33:49.162Z,10.30
2023-02-05T22:36:18.477Z,6.57
2023-02-05T22:38:44.976Z,9.32
2023-02-05T22:41:16.525Z,8.23
2023-02-05T22:43:43.796Z,7.68
2023-02-05T22:46:13.159Z,9.63
2023-02-05T22:48:41.790Z,7.05
2023-02-05T22:51:12.020Z,7.50
2023-02-05T22:53:38.807Z,7.68
2023-02-05T22:56:08.412Z,7.25
2023-02-05T22:58:35.629Z,7.10
2023-02-05T23:01:14.015Z,5.55
2023-02-05T23:03:41.217Z,7.35
2023-02-05T23:06:17.575Z,7.57
2023-02-05T23:08:51.390Z,8.15
2023-02-05T23:11:18.029Z,6.25
2023-02-05T23:13:45.065Z,6.63
2023-02-05T23:16:14.340Z,7.93
2023-02-05T23:18:42.125Z,8.15
2023-02-05T23:21:11.061Z,8.23
2023-02-05T23:23:37.839Z,9.70
2023-02-05T23:26:09.719Z,8.18
2023-02-05T23:28:36.357Z,7.20
2023-02-05T23:31:03.551Z,8.02
2023-02-05T23:33:31.100Z,10.07
2023-02-05T23:35:58.210Z,8.18
2023-02-05T23:38:25.077Z,9.75
2023-02-05T23:40:52.990Z,9.38
2023-02-05T23:43:19.983Z,9.40
2023-02-05T23:45:47.100Z,7.90
2023-02-05T23:48:14.006Z,8.07
2023-02-05T23:50:40.930Z,7.60
2023-02-05T23:53:08.084Z,8.27
2023-02-05T23:55:39.293Z,8.32
2023-02-05T23:58:07.096Z,8.88
